X  Fermer Données météorologiques d'aviation de Metar     EHKD De Kooy Airport
Température
68°F Température
59°F Point de rosée
73% Humidité



Vent
21 MPH
34 KM/H
9 M/S
18 KTS



230°
SO
Conditions actuelles

Nuages épars Nuages épars
Pression 1008.81 (hPa) - 29.79 (inHg)
Visibilité 6 (mile) - 9.7 (km)
Aéroport
Code de l'aéroport EHKD

Emplacement: De Kooy Airport
Distance: 34 (mi)

Metar:
EHKD 161440Z AUTO 23018KT 190V260 9999 SCT015 BKN019 OVC230 20/15 Q1009 WHT NOSIG

Temps: 16-07-2024 16:40 CEST